createdAt,value
2022-10-06T00:01:40.709Z,16.37
2022-10-06T00:06:42.430Z,16.37
2022-10-06T00:11:44.294Z,16.38
2022-10-06T00:16:45.855Z,16.37
2022-10-06T00:21:47.452Z,16.34
2022-10-06T00:26:49.000Z,16.32
2022-10-06T00:31:50.603Z,16.27
2022-10-06T00:36:52.115Z,16.21
2022-10-06T00:41:53.704Z,16.16
2022-10-06T00:46:55.339Z,16.12
2022-10-06T00:52:04.323Z,16.08
2022-10-06T00:57:07.196Z,16.02
2022-10-06T01:02:44.657Z,15.97
2022-10-06T01:07:46.409Z,15.92
2022-10-06T01:12:48.303Z,15.87
2022-10-06T01:17:55.300Z,15.82
2022-10-06T01:23:01.975Z,15.76
2022-10-06T01:28:06.284Z,15.71
2022-10-06T01:33:07.983Z,15.66
2022-10-06T01:38:10.002Z,15.63
2022-10-06T01:43:11.764Z,15.58
2022-10-06T01:48:13.580Z,15.56
2022-10-06T01:53:15.833Z,15.53
2022-10-06T01:58:17.779Z,15.49
2022-10-06T02:03:20.050Z,15.47
2022-10-06T02:08:21.602Z,15.45
2022-10-06T02:13:27.908Z,15.46
2022-10-06T02:18:30.001Z,15.43
2022-10-06T02:23:32.916Z,15.42
2022-10-06T02:28:35.427Z,15.39
2022-10-06T02:33:38.879Z,15.37
2022-10-06T02:38:41.662Z,15.31
2022-10-06T02:43:43.760Z,15.30
2022-10-06T02:48:45.350Z,15.27
2022-10-06T02:53:48.702Z,15.26
2022-10-06T02:58:53.311Z,15.27
2022-10-06T03:04:07.353Z,15.28
2022-10-06T03:09:10.480Z,15.25
2022-10-06T03:14:17.755Z,15.22
2022-10-06T03:19:23.159Z,15.18
2022-10-06T03:24:24.845Z,15.13
2022-10-06T03:29:31.008Z,15.12
2022-10-06T03:34:33.047Z,15.13
2022-10-06T03:39:37.022Z,15.13
2022-10-06T03:44:38.754Z,15.13
2022-10-06T03:49:40.518Z,15.13
2022-10-06T03:54:43.597Z,15.14
2022-10-06T03:59:45.808Z,15.15
2022-10-06T04:04:47.523Z,15.15
2022-10-06T04:09:49.194Z,15.15
2022-10-06T04:14:54.363Z,15.14
2022-10-06T04:19:58.347Z,15.12
2022-10-06T04:25:00.438Z,15.11
2022-10-06T04:30:02.175Z,15.09
2022-10-06T04:35:05.211Z,15.06
2022-10-06T04:40:07.780Z,15.02
2022-10-06T04:45:11.284Z,14.96
2022-10-06T04:50:14.609Z,14.92
2022-10-06T04:55:35.037Z,14.89
2022-10-06T05:00:37.509Z,14.88
2022-10-06T05:05:39.237Z,14.86
2022-10-06T05:10:41.899Z,14.83
2022-10-06T05:15:43.769Z,14.82
2022-10-06T05:21:06.789Z,14.80
2022-10-06T05:26:11.267Z,14.80
2022-10-06T05:31:27.751Z,14.81
2022-10-06T05:36:32.673Z,14.83
2022-10-06T05:41:37.379Z,14.84
2022-10-06T05:46:41.238Z,14.86
2022-10-06T05:51:43.871Z,14.88
2022-10-06T05:57:01.129Z,14.87
2022-10-06T06:02:04.815Z,14.92
2022-10-06T06:07:13.863Z,14.98
2022-10-06T06:12:17.832Z,15.04
2022-10-06T06:17:32.151Z,15.09
2022-10-06T06:22:35.810Z,15.14
2022-10-06T06:27:39.129Z,15.21
2022-10-06T06:32:41.421Z,15.28
2022-10-06T06:37:43.381Z,15.35
2022-10-06T06:42:45.045Z,15.40
2022-10-06T06:48:15.483Z,15.45
2022-10-06T06:53:17.606Z,15.48
2022-10-06T06:58:21.236Z,15.54
2022-10-06T07:08:47.016Z,15.73
2022-10-06T07:13:54.174Z,15.82
2022-10-06T07:19:14.619Z,15.88
2022-10-06T07:24:36.772Z,15.93
2022-10-06T07:29:38.764Z,16.02
2022-10-06T07:39:50.724Z,16.20
2022-10-06T07:45:11.211Z,16.27
2022-10-06T07:50:15.329Z,16.35
2022-10-06T07:55:18.232Z,16.44
2022-10-06T08:00:45.663Z,16.55
2022-10-06T08:05:50.128Z,16.68
2022-10-06T08:10:53.914Z,16.82
2022-10-06T08:15:56.499Z,16.94
2022-10-06T08:20:58.376Z,17.09
2022-10-06T08:25:59.883Z,17.20
2022-10-06T08:31:11.507Z,17.30
2022-10-06T08:36:16.656Z,17.40
2022-10-06T08:41:28.055Z,17.49
2022-10-06T08:46:37.046Z,17.60
2022-10-06T08:51:56.441Z,17.72
2022-10-06T08:57:16.562Z,17.84
2022-10-06T09:02:41.635Z,17.97
2022-10-06T09:08:21.947Z,18.06
2022-10-06T09:13:38.402Z,18.08
2022-10-06T09:19:07.122Z,18.18
2022-10-06T09:24:34.814Z,18.22
2022-10-06T09:29:36.380Z,18.21
2022-10-06T09:34:46.127Z,18.23
2022-10-06T09:39:50.737Z,18.30
2022-10-06T09:45:16.388Z,18.33
2022-10-06T09:50:22.787Z,18.36
2022-10-06T09:55:29.621Z,18.41
2022-10-06T10:00:38.478Z,18.55
2022-10-06T10:05:47.840Z,18.60
2022-10-06T10:11:07.811Z,18.65
2022-10-06T10:16:16.413Z,18.61
2022-10-06T10:21:29.665Z,18.62
2022-10-06T10:26:40.114Z,18.58
2022-10-06T10:32:06.053Z,18.53
2022-10-06T10:37:13.984Z,18.30
2022-10-06T10:42:21.885Z,18.21
2022-10-06T10:47:32.794Z,18.19
2022-10-06T10:52:42.279Z,18.20
2022-10-06T10:57:45.979Z,18.17
2022-10-06T11:02:48.355Z,18.17
2022-10-06T11:08:19.102Z,18.21
2022-10-06T11:13:43.764Z,18.36
2022-10-06T11:19:16.255Z,18.54
2022-10-06T11:24:34.094Z,18.73
2022-10-06T11:29:44.182Z,18.86
2022-10-06T11:34:49.617Z,18.89
2022-10-06T11:40:22.956Z,18.97
2022-10-06T11:45:35.499Z,19.05
2022-10-06T11:50:39.060Z,19.04
2022-10-06T11:55:40.542Z,19.05
2022-10-06T12:00:45.128Z,18.99
2022-10-06T12:05:56.208Z,18.94
2022-10-06T12:10:58.355Z,18.85
2022-10-06T12:21:50.642Z,18.91
2022-10-06T12:27:26.241Z,18.98
2022-10-06T12:32:43.604Z,19.01
2022-10-06T12:37:50.107Z,19.03
2022-10-06T12:43:12.378Z,19.04
2022-10-06T12:48:37.168Z,19.07
2022-10-06T12:54:11.291Z,19.17
2022-10-06T12:59:29.516Z,19.31
2022-10-06T13:04:42.972Z,19.45
2022-10-06T13:09:45.877Z,19.56
2022-10-06T13:14:48.220Z,19.70
2022-10-06T13:19:51.165Z,19.87
2022-10-06T13:25:02.159Z,20.02
2022-10-06T13:30:19.544Z,20.09
2022-10-06T13:35:24.434Z,20.20
2022-10-06T13:40:44.173Z,20.31
2022-10-06T13:45:48.387Z,20.37
2022-10-06T13:50:50.228Z,20.45
2022-10-06T13:55:52.474Z,20.57
2022-10-06T14:01:00.895Z,20.70
2022-10-06T14:06:22.217Z,20.83
2022-10-06T14:11:28.075Z,20.94
2022-10-06T14:16:30.091Z,21.05
2022-10-06T14:21:38.750Z,21.17
2022-10-06T14:26:40.583Z,21.34
2022-10-06T14:31:43.647Z,21.53
2022-10-06T14:36:55.075Z,21.63
2022-10-06T14:41:56.629Z,21.74
2022-10-06T14:46:58.201Z,21.89
2022-10-06T14:51:59.828Z,21.94
2022-10-06T14:57:01.658Z,21.93
2022-10-06T15:08:00.212Z,21.88
2022-10-06T15:13:06.332Z,21.94
2022-10-06T15:18:07.823Z,21.94
2022-10-06T15:23:09.574Z,21.98
2022-10-06T15:28:33.049Z,22.01
2022-10-06T15:33:37.535Z,21.99
2022-10-06T15:38:41.288Z,22.01
2022-10-06T15:43:55.163Z,22.00
2022-10-06T15:49:02.637Z,21.97
2022-10-06T15:54:11.023Z,21.98
2022-10-06T15:59:12.511Z,22.03
2022-10-06T16:04:24.880Z,22.04
2022-10-06T16:09:29.999Z,22.04
2022-10-06T16:14:32.249Z,22.01
2022-10-06T16:19:36.896Z,21.90
2022-10-06T16:24:41.268Z,21.76
2022-10-06T16:29:42.960Z,21.59
2022-10-06T16:34:44.429Z,21.43
2022-10-06T16:39:46.865Z,21.27
2022-10-06T16:44:50.723Z,21.06
2022-10-06T16:49:54.538Z,20.87
2022-10-06T16:54:58.368Z,20.67
2022-10-06T17:00:05.734Z,20.45
2022-10-06T17:10:20.227Z,20.04
2022-10-06T17:15:22.357Z,19.85
2022-10-06T17:20:28.568Z,19.67
2022-10-06T17:25:30.114Z,19.50
2022-10-06T17:30:32.783Z,19.39
2022-10-06T17:35:37.347Z,19.31
2022-10-06T17:40:47.919Z,19.22
2022-10-06T17:45:51.910Z,19.15
2022-10-06T17:51:02.037Z,19.03
2022-10-06T17:56:08.096Z,18.96
2022-10-06T18:01:15.017Z,18.90
2022-10-06T18:06:21.429Z,18.85
2022-10-06T18:11:39.654Z,18.81
2022-10-06T18:16:49.864Z,18.73
2022-10-06T18:22:01.994Z,18.67
2022-10-06T18:27:05.853Z,18.60
2022-10-06T18:37:33.445Z,18.48
2022-10-06T18:42:35.142Z,18.41
2022-10-06T18:47:58.646Z,18.35
2022-10-06T18:53:01.253Z,18.30
2022-10-06T18:58:04.520Z,18.24
2022-10-06T19:03:07.238Z,18.21
2022-10-06T19:08:11.878Z,18.16
2022-10-06T19:13:15.915Z,18.12
2022-10-06T19:18:24.379Z,18.06
2022-10-06T19:23:25.930Z,18.00
2022-10-06T19:28:31.918Z,17.95
2022-10-06T19:33:37.790Z,17.91
2022-10-06T19:38:40.562Z,17.85
2022-10-06T19:43:47.382Z,17.80
2022-10-06T19:48:58.346Z,17.75
2022-10-06T19:54:05.234Z,17.70
2022-10-06T19:59:22.472Z,17.65
2022-10-06T20:04:24.529Z,17.59
2022-10-06T20:09:46.575Z,17.52
2022-10-06T20:14:48.089Z,17.47
2022-10-06T20:19:52.813Z,17.42
2022-10-06T20:24:56.856Z,17.38
2022-10-06T20:29:58.449Z,17.33
2022-10-06T20:35:01.889Z,17.28
2022-10-06T20:40:22.190Z,17.23
2022-10-06T20:45:23.937Z,17.18
2022-10-06T20:50:25.832Z,17.14
2022-10-06T20:55:27.362Z,17.06
2022-10-06T21:00:29.285Z,17.00
2022-10-06T21:05:33.280Z,16.95
2022-10-06T21:10:35.033Z,16.89
2022-10-06T21:15:45.246Z,16.84
2022-10-06T21:20:55.379Z,16.80
2022-10-06T21:26:00.653Z,16.75
2022-10-06T21:31:07.784Z,16.71
2022-10-06T21:36:24.344Z,16.68
2022-10-06T21:41:29.604Z,16.63
2022-10-06T21:46:38.719Z,16.58
2022-10-06T21:51:41.831Z,16.54
2022-10-06T21:56:43.802Z,16.51
2022-10-06T22:01:46.781Z,16.46
2022-10-06T22:06:51.880Z,16.43
2022-10-06T22:11:53.585Z,16.38
2022-10-06T22:16:55.290Z,16.34
2022-10-06T22:21:57.019Z,16.29
2022-10-06T22:27:01.561Z,16.25
2022-10-06T22:32:03.328Z,16.20
2022-10-06T22:37:05.843Z,16.12
2022-10-06T22:42:07.635Z,16.06
2022-10-06T22:47:09.374Z,15.99
2022-10-06T22:52:11.108Z,15.93
2022-10-06T22:57:12.774Z,15.88
2022-10-06T23:02:14.494Z,15.84
2022-10-06T23:07:16.205Z,15.78
2022-10-06T23:12:17.966Z,15.76
2022-10-06T23:17:19.665Z,15.72
2022-10-06T23:22:21.416Z,15.68
2022-10-06T23:27:23.190Z,15.65
2022-10-06T23:32:24.881Z,15.61
2022-10-06T23:37:26.629Z,15.59
2022-10-06T23:42:28.351Z,15.55
2022-10-06T23:47:30.092Z,15.52
2022-10-06T23:52:31.790Z,15.50
2022-10-06T23:57:33.552Z,15.46
